sensor_id;sensor_type;location;lat;lon;timestamp;P1;P2;P0
72908;PMS5003;61051;62.624;17.950;2024-01-30T00:00:32;0;0;
72908;PMS5003;61051;62.624;17.950;2024-01-30T00:03:00;0;0;
72908;PMS5003;61051;62.624;17.950;2024-01-30T00:05:29;0;0;
72908;PMS5003;61051;62.624;17.950;2024-01-30T00:07:57;2;0;
72908;PMS5003;61051;62.624;17.950;2024-01-30T00:10:26;0;0;
72908;PMS5003;61051;62.624;17.950;2024-01-30T00:12:54;0;0;
72908;PMS5003;61051;62.624;17.950;2024-01-30T00:15:23;1;1;
72908;PMS5003;61051;62.624;17.950;2024-01-30T00:17:51;1;1;
72908;PMS5003;61051;62.624;17.950;2024-01-30T00:20:20;1;0;
72908;PMS5003;61051;62.624;17.950;2024-01-30T00:22:48;2;1;
72908;PMS5003;61051;62.624;17.950;2024-01-30T00:25:17;0;0;
72908;PMS5003;61051;62.624;17.950;2024-01-30T00:27:45;0;0;
72908;PMS5003;61051;62.624;17.950;2024-01-30T00:30:14;0;0;
72908;PMS5003;61051;62.624;17.950;2024-01-30T00:32:44;1;1;
72908;PMS5003;61051;62.624;17.950;2024-01-30T00:35:12;2;0;
72908;PMS5003;61051;62.624;17.950;2024-01-30T00:37:42;0;0;
72908;PMS5003;61051;62.624;17.950;2024-01-30T00:40:11;0;0;
72908;PMS5003;61051;62.624;17.950;2024-01-30T00:42:39;1;0;
72908;PMS5003;61051;62.624;17.950;2024-01-30T00:45:11;0;0;
72908;PMS5003;61051;62.624;17.950;2024-01-30T00:47:41;2;1;
72908;PMS5003;61051;62.624;17.950;2024-01-30T00:50:10;0;0;
72908;PMS5003;61051;62.624;17.950;2024-01-30T00:52:40;2;0;
72908;PMS5003;61051;62.624;17.950;2024-01-30T00:55:08;1;1;
72908;PMS5003;61051;62.624;17.950;2024-01-30T00:57:37;0;0;
72908;PMS5003;61051;62.624;17.950;2024-01-30T01:00:06;1;1;
72908;PMS5003;61051;62.624;17.950;2024-01-30T01:02:36;0;0;
72908;PMS5003;61051;62.624;17.950;2024-01-30T01:05:04;1;1;
72908;PMS5003;61051;62.624;17.950;2024-01-30T01:07:34;1;0;
72908;PMS5003;61051;62.624;17.950;2024-01-30T01:10:03;0;0;
72908;PMS5003;61051;62.624;17.950;2024-01-30T01:12:31;0;0;
72908;PMS5003;61051;62.624;17.950;2024-01-30T01:15:00;2;2;
72908;PMS5003;61051;62.624;17.950;2024-01-30T01:17:28;0;0;
72908;PMS5003;61051;62.624;17.950;2024-01-30T01:19:57;0;0;
72908;PMS5003;61051;62.624;17.950;2024-01-30T01:22:25;0;0;
72908;PMS5003;61051;62.624;17.950;2024-01-30T01:24:54;0;0;
72908;PMS5003;61051;62.624;17.950;2024-01-30T01:27:22;2;0;
72908;PMS5003;61051;62.624;17.950;2024-01-30T01:29:50;0;0;
72908;PMS5003;61051;62.624;17.950;2024-01-30T01:32:19;0;0;
72908;PMS5003;61051;62.624;17.950;2024-01-30T01:34:47;0;0;
72908;PMS5003;61051;62.624;17.950;2024-01-30T01:37:16;1;1;
72908;PMS5003;61051;62.624;17.950;2024-01-30T01:39:44;1;1;
72908;PMS5003;61051;62.624;17.950;2024-01-30T01:42:13;0;0;
72908;PMS5003;61051;62.624;17.950;2024-01-30T01:44:43;1;1;
72908;PMS5003;61051;62.624;17.950;2024-01-30T01:47:12;1;0;
72908;PMS5003;61051;62.624;17.950;2024-01-30T01:49:40;0;0;
72908;PMS5003;61051;62.624;17.950;2024-01-30T01:52:09;0;0;
72908;PMS5003;61051;62.624;17.950;2024-01-30T01:54:37;2;1;
72908;PMS5003;61051;62.624;17.950;2024-01-30T01:57:05;0;0;
72908;PMS5003;61051;62.624;17.950;2024-01-30T01:59:34;1;1;
72908;PMS5003;61051;62.624;17.950;2024-01-30T02:02:03;0;0;
72908;PMS5003;61051;62.624;17.950;2024-01-30T02:04:33;0;0;
72908;PMS5003;61051;62.624;17.950;2024-01-30T02:07:01;0;0;
72908;PMS5003;61051;62.624;17.950;2024-01-30T02:09:30;0;0;
72908;PMS5003;61051;62.624;17.950;2024-01-30T02:11:58;0;0;
72908;PMS5003;61051;62.624;17.950;2024-01-30T02:14:27;0;0;
72908;PMS5003;61051;62.624;17.950;2024-01-30T02:16:55;2;0;
72908;PMS5003;61051;62.624;17.950;2024-01-30T02:19:24;0;0;
72908;PMS5003;61051;62.624;17.950;2024-01-30T02:21:52;0;0;
72908;PMS5003;61051;62.624;17.950;2024-01-30T02:24:23;1;1;
72908;PMS5003;61051;62.624;17.950;2024-01-30T02:26:51;0;0;
72908;PMS5003;61051;62.624;17.950;2024-01-30T02:29:20;0;0;
72908;PMS5003;61051;62.624;17.950;2024-01-30T02:31:48;0;0;
72908;PMS5003;61051;62.624;17.950;2024-01-30T02:34:17;1;0;
72908;PMS5003;61051;62.624;17.950;2024-01-30T02:36:45;0;0;
72908;PMS5003;61051;62.624;17.950;2024-01-30T02:39:14;0;0;
72908;PMS5003;61051;62.624;17.950;2024-01-30T02:41:44;0;0;
72908;PMS5003;61051;62.624;17.950;2024-01-30T02:44:13;2;0;
72908;PMS5003;61051;62.624;17.950;2024-01-30T02:46:43;2;1;
72908;PMS5003;61051;62.624;17.950;2024-01-30T02:49:12;1;1;
72908;PMS5003;61051;62.624;17.950;2024-01-30T02:51:42;0;0;
72908;PMS5003;61051;62.624;17.950;2024-01-30T02:54:11;0;0;
72908;PMS5003;61051;62.624;17.950;2024-01-30T02:56:39;0;0;
72908;PMS5003;61051;62.624;17.950;2024-01-30T02:59:08;0;0;
72908;PMS5003;61051;62.624;17.950;2024-01-30T03:01:42;1;0;
72908;PMS5003;61051;62.624;17.950;2024-01-30T03:04:10;1;0;
72908;PMS5003;61051;62.624;17.950;2024-01-30T03:06:44;0;0;
72908;PMS5003;61051;62.624;17.950;2024-01-30T03:09:15;0;0;
72908;PMS5003;61051;62.624;17.950;2024-01-30T03:11:45;1;0;
72908;PMS5003;61051;62.624;17.950;2024-01-30T03:14:14;2;1;
72908;PMS5003;61051;62.624;17.950;2024-01-30T03:16:44;0;0;
72908;PMS5003;61051;62.624;17.950;2024-01-30T03:19:13;1;1;
72908;PMS5003;61051;62.624;17.950;2024-01-30T03:21:43;0;0;
72908;PMS5003;61051;62.624;17.950;2024-01-30T03:24:11;0;0;
72908;PMS5003;61051;62.624;17.950;2024-01-30T03:26:40;1;0;
72908;PMS5003;61051;62.624;17.950;2024-01-30T03:29:09;0;0;
72908;PMS5003;61051;62.624;17.950;2024-01-30T03:31:38;0;0;
72908;PMS5003;61051;62.624;17.950;2024-01-30T03:34:06;0;0;
72908;PMS5003;61051;62.624;17.950;2024-01-30T03:36:35;1;1;
72908;PMS5003;61051;62.624;17.950;2024-01-30T03:39:04;0;0;
72908;PMS5003;61051;62.624;17.950;2024-01-30T03:41:32;1;0;
72908;PMS5003;61051;62.624;17.950;2024-01-30T03:44:01;2;0;
72908;PMS5003;61051;62.624;17.950;2024-01-30T03:46:29;0;0;
72908;PMS5003;61051;62.624;17.950;2024-01-30T03:48:58;0;0;
72908;PMS5003;61051;62.624;17.950;2024-01-30T03:51:27;1;1;
72908;PMS5003;61051;62.624;17.950;2024-01-30T03:53:55;0;0;
72908;PMS5003;61051;62.624;17.950;2024-01-30T03:56:24;0;0;
72908;PMS5003;61051;62.624;17.950;2024-01-30T03:58:52;0;0;
72908;PMS5003;61051;62.624;17.950;2024-01-30T04:01:21;0;0;
72908;PMS5003;61051;62.624;17.950;2024-01-30T04:03:50;2;1;
72908;PMS5003;61051;62.624;17.950;2024-01-30T04:06:18;0;0;
72908;PMS5003;61051;62.624;17.950;2024-01-30T04:08:47;0;0;
72908;PMS5003;61051;62.624;17.950;2024-01-30T04:11:17;3;0;
72908;PMS5003;61051;62.624;17.950;2024-01-30T04:13:46;1;0;
72908;PMS5003;61051;62.624;17.950;2024-01-30T04:16:22;4;1;
72908;PMS5003;61051;62.624;17.950;2024-01-30T04:18:51;1;0;
72908;PMS5003;61051;62.624;17.950;2024-01-30T04:21:20;1;1;
72908;PMS5003;61051;62.624;17.950;2024-01-30T04:23:50;2;1;
72908;PMS5003;61051;62.624;17.950;2024-01-30T04:26:18;0;0;
72908;PMS5003;61051;62.624;17.950;2024-01-30T04:28:47;3;1;
72908;PMS5003;61051;62.624;17.950;2024-01-30T04:31:15;1;1;
72908;PMS5003;61051;62.624;17.950;2024-01-30T04:33:44;0;0;
72908;PMS5003;61051;62.624;17.950;2024-01-30T04:36:13;0;0;
72908;PMS5003;61051;62.624;17.950;2024-01-30T04:38:43;0;0;
72908;PMS5003;61051;62.624;17.950;2024-01-30T04:41:12;0;0;
72908;PMS5003;61051;62.624;17.950;2024-01-30T04:43:40;0;0;
72908;PMS5003;61051;62.624;17.950;2024-01-30T04:46:09;0;0;
72908;PMS5003;61051;62.624;17.950;2024-01-30T04:48:38;1;1;
72908;PMS5003;61051;62.624;17.950;2024-01-30T04:51:06;2;2;
72908;PMS5003;61051;62.624;17.950;2024-01-30T04:53:35;0;0;
72908;PMS5003;61051;62.624;17.950;2024-01-30T04:56:04;1;0;
72908;PMS5003;61051;62.624;17.950;2024-01-30T04:58:34;0;0;
72908;PMS5003;61051;62.624;17.950;2024-01-30T05:03:17;0;0;
72908;PMS5003;61051;62.624;17.950;2024-01-30T05:05:46;0;0;
72908;PMS5003;61051;62.624;17.950;2024-01-30T05:08:15;1;1;
72908;PMS5003;61051;62.624;17.950;2024-01-30T05:10:44;1;1;
72908;PMS5003;61051;62.624;17.950;2024-01-30T05:13:12;1;0;
72908;PMS5003;61051;62.624;17.950;2024-01-30T05:15:41;0;0;
72908;PMS5003;61051;62.624;17.950;2024-01-30T05:18:09;0;0;
72908;PMS5003;61051;62.624;17.950;2024-01-30T05:20:39;9;1;
72908;PMS5003;61051;62.624;17.950;2024-01-30T05:23:07;1;1;
72908;PMS5003;61051;62.624;17.950;2024-01-30T05:25:36;0;0;
72908;PMS5003;61051;62.624;17.950;2024-01-30T05:28:05;0;0;
72908;PMS5003;61051;62.624;17.950;2024-01-30T05:30:33;1;1;
72908;PMS5003;61051;62.624;17.950;2024-01-30T05:33:02;1;1;
72908;PMS5003;61051;62.624;17.950;2024-01-30T05:35:31;2;2;
72908;PMS5003;61051;62.624;17.950;2024-01-30T05:38:00;3;2;
72908;PMS5003;61051;62.624;17.950;2024-01-30T05:40:29;0;0;
72908;PMS5003;61051;62.624;17.950;2024-01-30T05:42:58;2;2;
72908;PMS5003;61051;62.624;17.950;2024-01-30T05:45:26;2;1;
72908;PMS5003;61051;62.624;17.950;2024-01-30T05:47:56;1;1;
72908;PMS5003;61051;62.624;17.950;2024-01-30T05:50:24;1;1;
72908;PMS5003;61051;62.624;17.950;2024-01-30T05:52:53;1;1;
72908;PMS5003;61051;62.624;17.950;2024-01-30T05:55:22;1;1;
72908;PMS5003;61051;62.624;17.950;2024-01-30T05:57:51;1;1;
72908;PMS5003;61051;62.624;17.950;2024-01-30T06:00:19;3;1;
72908;PMS5003;61051;62.624;17.950;2024-01-30T06:02:48;3;2;
72908;PMS5003;61051;62.624;17.950;2024-01-30T06:05:17;1;1;
72908;PMS5003;61051;62.624;17.950;2024-01-30T06:07:45;2;0;
72908;PMS5003;61051;62.624;17.950;2024-01-30T06:10:14;2;0;
72908;PMS5003;61051;62.624;17.950;2024-01-30T06:12:43;1;1;
72908;PMS5003;61051;62.624;17.950;2024-01-30T06:15:12;1;1;
72908;PMS5003;61051;62.624;17.950;2024-01-30T06:17:40;1;1;
72908;PMS5003;61051;62.624;17.950;2024-01-30T06:20:09;1;1;
72908;PMS5003;61051;62.624;17.950;2024-01-30T06:22:38;4;1;
72908;PMS5003;61051;62.624;17.950;2024-01-30T06:25:07;1;1;
72908;PMS5003;61051;62.624;17.950;2024-01-30T06:27:36;4;2;
72908;PMS5003;61051;62.624;17.950;2024-01-30T06:30:05;1;1;
72908;PMS5003;61051;62.624;17.950;2024-01-30T06:32:35;2;2;
72908;PMS5003;61051;62.624;17.950;2024-01-30T06:35:04;5;2;
72908;PMS5003;61051;62.624;17.950;2024-01-30T06:37:34;1;1;
72908;PMS5003;61051;62.624;17.950;2024-01-30T06:40:03;7;3;
72908;PMS5003;61051;62.624;17.950;2024-01-30T06:42:32;16;5;
72908;PMS5003;61051;62.624;17.950;2024-01-30T06:45:01;21;15;
72908;PMS5003;61051;62.624;17.950;2024-01-30T06:47:30;23;17;
72908;PMS5003;61051;62.624;17.950;2024-01-30T06:49:58;23;17;
72908;PMS5003;61051;62.624;17.950;2024-01-30T06:52:27;16;14;
72908;PMS5003;61051;62.624;17.950;2024-01-30T06:54:56;7;7;
72908;PMS5003;61051;62.624;17.950;2024-01-30T06:57:25;8;4;
72908;PMS5003;61051;62.624;17.950;2024-01-30T06:59:55;7;6;
72908;PMS5003;61051;62.624;17.950;2024-01-30T07:02:25;13;6;
72908;PMS5003;61051;62.624;17.950;2024-01-30T07:04:53;8;4;
72908;PMS5003;61051;62.624;17.950;2024-01-30T07:07:22;5;3;
72908;PMS5003;61051;62.624;17.950;2024-01-30T07:09:50;6;3;
72908;PMS5003;61051;62.624;17.950;2024-01-30T07:12:19;7;5;
72908;PMS5003;61051;62.624;17.950;2024-01-30T07:14:48;3;3;
72908;PMS5003;61051;62.624;17.950;2024-01-30T07:17:17;5;2;
72908;PMS5003;61051;62.624;17.950;2024-01-30T07:19:46;6;5;
72908;PMS5003;61051;62.624;17.950;2024-01-30T07:22:15;5;5;
72908;PMS5003;61051;62.624;17.950;2024-01-30T07:24:43;6;5;
72908;PMS5003;61051;62.624;17.950;2024-01-30T07:27:12;5;5;
72908;PMS5003;61051;62.624;17.950;2024-01-30T07:29:43;6;3;
72908;PMS5003;61051;62.624;17.950;2024-01-30T07:32:11;6;5;
72908;PMS5003;61051;62.624;17.950;2024-01-30T07:34:40;7;6;
72908;PMS5003;61051;62.624;17.950;2024-01-30T07:37:09;8;4;
72908;PMS5003;61051;62.624;17.950;2024-01-30T07:39:37;7;6;
72908;PMS5003;61051;62.624;17.950;2024-01-30T07:42:06;6;6;
72908;PMS5003;61051;62.624;17.950;2024-01-30T07:44:35;6;6;
72908;PMS5003;61051;62.624;17.950;2024-01-30T07:47:04;6;6;
72908;PMS5003;61051;62.624;17.950;2024-01-30T07:49:32;3;3;
72908;PMS5003;61051;62.624;17.950;2024-01-30T07:52:02;5;5;
72908;PMS5003;61051;62.624;17.950;2024-01-30T07:54:30;7;7;
72908;PMS5003;61051;62.624;17.950;2024-01-30T07:56:59;6;6;
72908;PMS5003;61051;62.624;17.950;2024-01-30T07:59:28;3;3;
72908;PMS5003;61051;62.624;17.950;2024-01-30T08:01:57;3;3;
72908;PMS5003;61051;62.624;17.950;2024-01-30T08:04:27;7;6;
72908;PMS5003;61051;62.624;17.950;2024-01-30T08:06:56;12;10;
72908;PMS5003;61051;62.624;17.950;2024-01-30T08:09:27;6;5;
72908;PMS5003;61051;62.624;17.950;2024-01-30T08:11:56;5;5;
72908;PMS5003;61051;62.624;17.950;2024-01-30T08:14:26;6;5;
72908;PMS5003;61051;62.624;17.950;2024-01-30T08:16:56;2;2;
72908;PMS5003;61051;62.624;17.950;2024-01-30T08:19:26;3;3;
72908;PMS5003;61051;62.624;17.950;2024-01-30T08:21:55;3;2;
72908;PMS5003;61051;62.624;17.950;2024-01-30T08:24:25;3;2;
72908;PMS5003;61051;62.624;17.950;2024-01-30T08:26:54;5;3;
72908;PMS5003;61051;62.624;17.950;2024-01-30T08:29:22;1;1;
72908;PMS5003;61051;62.624;17.950;2024-01-30T08:31:51;1;1;
72908;PMS5003;61051;62.624;17.950;2024-01-30T08:34:20;5;2;
72908;PMS5003;61051;62.624;17.950;2024-01-30T08:36:49;8;3;
72908;PMS5003;61051;62.624;17.950;2024-01-30T08:39:18;3;3;
72908;PMS5003;61051;62.624;17.950;2024-01-30T08:41:47;25;17;
72908;PMS5003;61051;62.624;17.950;2024-01-30T08:44:15;5;3;
72908;PMS5003;61051;62.624;17.950;2024-01-30T08:46:44;4;2;
72908;PMS5003;61051;62.624;17.950;2024-01-30T08:49:13;3;3;
72908;PMS5003;61051;62.624;17.950;2024-01-30T08:51:42;8;3;
72908;PMS5003;61051;62.624;17.950;2024-01-30T08:54:11;3;3;
72908;PMS5003;61051;62.624;17.950;2024-01-30T08:56:39;3;3;
72908;PMS5003;61051;62.624;17.950;2024-01-30T08:59:08;6;2;
72908;PMS5003;61051;62.624;17.950;2024-01-30T09:01:37;2;2;
72908;PMS5003;61051;62.624;17.950;2024-01-30T09:04:05;5;3;
72908;PMS5003;61051;62.624;17.950;2024-01-30T09:06:34;6;3;
72908;PMS5003;61051;62.624;17.950;2024-01-30T09:09:03;6;3;
72908;PMS5003;61051;62.624;17.950;2024-01-30T09:11:32;6;4;
72908;PMS5003;61051;62.624;17.950;2024-01-30T09:14:00;8;4;
72908;PMS5003;61051;62.624;17.950;2024-01-30T09:16:29;6;6;
72908;PMS5003;61051;62.624;17.950;2024-01-30T09:18:58;4;3;
72908;PMS5003;61051;62.624;17.950;2024-01-30T09:21:26;7;4;
72908;PMS5003;61051;62.624;17.950;2024-01-30T09:24:01;4;4;
72908;PMS5003;61051;62.624;17.950;2024-01-30T09:26:31;7;7;
72908;PMS5003;61051;62.624;17.950;2024-01-30T09:28:59;11;8;
72908;PMS5003;61051;62.624;17.950;2024-01-30T09:31:28;7;7;
72908;PMS5003;61051;62.624;17.950;2024-01-30T09:33:57;8;7;
72908;PMS5003;61051;62.624;17.950;2024-01-30T09:36:26;7;7;
72908;PMS5003;61051;62.624;17.950;2024-01-30T09:38:55;7;7;
72908;PMS5003;61051;62.624;17.950;2024-01-30T09:41:25;6;6;
72908;PMS5003;61051;62.624;17.950;2024-01-30T09:43:56;9;6;
72908;PMS5003;61051;62.624;17.950;2024-01-30T09:46:28;7;7;
72908;PMS5003;61051;62.624;17.950;2024-01-30T09:49:00;12;9;
72908;PMS5003;61051;62.624;17.950;2024-01-30T09:51:30;8;6;
72908;PMS5003;61051;62.624;17.950;2024-01-30T09:53:59;17;14;
72908;PMS5003;61051;62.624;17.950;2024-01-30T09:56:28;17;14;
72908;PMS5003;61051;62.624;17.950;2024-01-30T09:58:57;14;14;
72908;PMS5003;61051;62.624;17.950;2024-01-30T10:01:26;15;14;
72908;PMS5003;61051;62.624;17.950;2024-01-30T10:03:56;15;13;
72908;PMS5003;61051;62.624;17.950;2024-01-30T10:06:25;14;12;
72908;PMS5003;61051;62.624;17.950;2024-01-30T10:08:56;8;8;
72908;PMS5003;61051;62.624;17.950;2024-01-30T10:11:26;12;9;
72908;PMS5003;61051;62.624;17.950;2024-01-30T10:13:57;8;8;
72908;PMS5003;61051;62.624;17.950;2024-01-30T10:16:26;9;7;
72908;PMS5003;61051;62.624;17.950;2024-01-30T10:18:55;9;6;
72908;PMS5003;61051;62.624;17.950;2024-01-30T10:21:25;11;8;
72908;PMS5003;61051;62.624;17.950;2024-01-30T10:23:54;11;9;
72908;PMS5003;61051;62.624;17.950;2024-01-30T10:26:22;9;9;
72908;PMS5003;61051;62.624;17.950;2024-01-30T10:28:52;12;11;
72908;PMS5003;61051;62.624;17.950;2024-01-30T10:31:21;12;12;
72908;PMS5003;61051;62.624;17.950;2024-01-30T10:33:50;12;9;
72908;PMS5003;61051;62.624;17.950;2024-01-30T10:36:19;14;8;
72908;PMS5003;61051;62.624;17.950;2024-01-30T10:38:57;12;12;
72908;PMS5003;61051;62.624;17.950;2024-01-30T10:41:28;13;13;
72908;PMS5003;61051;62.624;17.950;2024-01-30T10:44:08;15;15;
72908;PMS5003;61051;62.624;17.950;2024-01-30T10:46:37;19;15;
72908;PMS5003;61051;62.624;17.950;2024-01-30T10:49:06;22;13;
72908;PMS5003;61051;62.624;17.950;2024-01-30T10:51:35;17;14;
72908;PMS5003;61051;62.624;17.950;2024-01-30T10:54:05;13;13;
72908;PMS5003;61051;62.624;17.950;2024-01-30T10:56:34;17;12;
72908;PMS5003;61051;62.624;17.950;2024-01-30T10:59:04;17;13;
72908;PMS5003;61051;62.624;17.950;2024-01-30T11:04:48;12;9;
72908;PMS5003;61051;62.624;17.950;2024-01-30T11:07:17;8;6;
72908;PMS5003;61051;62.624;17.950;2024-01-30T11:09:48;9;8;
72908;PMS5003;61051;62.624;17.950;2024-01-30T11:12:21;9;7;
72908;PMS5003;61051;62.624;17.950;2024-01-30T11:14:50;6;6;
72908;PMS5003;61051;62.624;17.950;2024-01-30T11:17:39;7;4;
72908;PMS5003;61051;62.624;17.950;2024-01-30T11:20:10;3;3;
72908;PMS5003;61051;62.624;17.950;2024-01-30T11:22:40;7;4;
72908;PMS5003;61051;62.624;17.950;2024-01-30T11:25:13;9;7;
72908;PMS5003;61051;62.624;17.950;2024-01-30T11:27:42;8;7;
72908;PMS5003;61051;62.624;17.950;2024-01-30T11:30:11;10;8;
72908;PMS5003;61051;62.624;17.950;2024-01-30T11:32:57;8;8;
72908;PMS5003;61051;62.624;17.950;2024-01-30T11:35:28;10;10;
72908;PMS5003;61051;62.624;17.950;2024-01-30T11:37:58;9;9;
72908;PMS5003;61051;62.624;17.950;2024-01-30T11:40:29;18;9;
72908;PMS5003;61051;62.624;17.950;2024-01-30T11:42:59;13;12;
72908;PMS5003;61051;62.624;17.950;2024-01-30T11:45:29;14;13;
72908;PMS5003;61051;62.624;17.950;2024-01-30T11:47:58;8;8;
72908;PMS5003;61051;62.624;17.950;2024-01-30T11:50:28;12;7;
72908;PMS5003;61051;62.624;17.950;2024-01-30T11:52:57;13;12;
72908;PMS5003;61051;62.624;17.950;2024-01-30T11:55:27;12;10;
72908;PMS5003;61051;62.624;17.950;2024-01-30T11:57:57;18;8;
72908;PMS5003;61051;62.624;17.950;2024-01-30T12:00:26;9;8;
72908;PMS5003;61051;62.624;17.950;2024-01-30T12:02:55;8;8;
72908;PMS5003;61051;62.624;17.950;2024-01-30T12:05:23;12;9;
72908;PMS5003;61051;62.624;17.950;2024-01-30T12:07:53;12;12;
72908;PMS5003;61051;62.624;17.950;2024-01-30T12:10:22;8;8;
72908;PMS5003;61051;62.624;17.950;2024-01-30T12:12:51;6;6;
72908;PMS5003;61051;62.624;17.950;2024-01-30T12:15:21;4;4;
72908;PMS5003;61051;62.624;17.950;2024-01-30T12:17:50;6;6;
72908;PMS5003;61051;62.624;17.950;2024-01-30T12:20:19;8;7;
72908;PMS5003;61051;62.624;17.950;2024-01-30T12:22:49;7;5;
72908;PMS5003;61051;62.624;17.950;2024-01-30T12:25:18;10;9;
72908;PMS5003;61051;62.624;17.950;2024-01-30T12:27:48;3;3;
72908;PMS5003;61051;62.624;17.950;2024-01-30T12:30:19;9;5;
72908;PMS5003;61051;62.624;17.950;2024-01-30T12:32:49;6;5;
72908;PMS5003;61051;62.624;17.950;2024-01-30T12:35:19;4;4;
72908;PMS5003;61051;62.624;17.950;2024-01-30T12:37:48;7;5;
72908;PMS5003;61051;62.624;17.950;2024-01-30T12:40:17;6;4;
72908;PMS5003;61051;62.624;17.950;2024-01-30T12:42:46;8;7;
72908;PMS5003;61051;62.624;17.950;2024-01-30T12:45:15;10;8;
72908;PMS5003;61051;62.624;17.950;2024-01-30T12:47:43;8;7;
72908;PMS5003;61051;62.624;17.950;2024-01-30T12:50:12;10;10;
72908;PMS5003;61051;62.624;17.950;2024-01-30T12:52:41;5;5;
72908;PMS5003;61051;62.624;17.950;2024-01-30T12:55:09;5;4;
72908;PMS5003;61051;62.624;17.950;2024-01-30T12:57:38;5;3;
72908;PMS5003;61051;62.624;17.950;2024-01-30T13:00:07;4;4;
72908;PMS5003;61051;62.624;17.950;2024-01-30T13:02:37;4;4;
72908;PMS5003;61051;62.624;17.950;2024-01-30T13:05:06;3;3;
72908;PMS5003;61051;62.624;17.950;2024-01-30T13:07:34;3;3;
72908;PMS5003;61051;62.624;17.950;2024-01-30T13:10:03;8;2;
72908;PMS5003;61051;62.624;17.950;2024-01-30T13:12:32;4;4;
72908;PMS5003;61051;62.624;17.950;2024-01-30T13:15:01;3;3;
72908;PMS5003;61051;62.624;17.950;2024-01-30T13:17:29;4;3;
72908;PMS5003;61051;62.624;17.950;2024-01-30T13:19:58;3;3;
72908;PMS5003;61051;62.624;17.950;2024-01-30T13:22:27;6;4;
72908;PMS5003;61051;62.624;17.950;2024-01-30T13:24:56;3;3;
72908;PMS5003;61051;62.624;17.950;2024-01-30T13:27:24;6;4;
72908;PMS5003;61051;62.624;17.950;2024-01-30T13:29:53;4;3;
72908;PMS5003;61051;62.624;17.950;2024-01-30T13:32:21;7;6;
72908;PMS5003;61051;62.624;17.950;2024-01-30T13:34:50;3;3;
72908;PMS5003;61051;62.624;17.950;2024-01-30T13:37:19;6;2;
72908;PMS5003;61051;62.624;17.950;2024-01-30T13:39:47;4;3;
72908;PMS5003;61051;62.624;17.950;2024-01-30T13:42:16;4;4;
72908;PMS5003;61051;62.624;17.950;2024-01-30T13:44:45;8;4;
72908;PMS5003;61051;62.624;17.950;2024-01-30T13:47:13;3;3;
72908;PMS5003;61051;62.624;17.950;2024-01-30T13:49:42;6;4;
72908;PMS5003;61051;62.624;17.950;2024-01-30T13:52:11;6;6;
72908;PMS5003;61051;62.624;17.950;2024-01-30T13:54:39;3;3;
72908;PMS5003;61051;62.624;17.950;2024-01-30T13:57:08;7;4;
72908;PMS5003;61051;62.624;17.950;2024-01-30T13:59:37;4;4;
72908;PMS5003;61051;62.624;17.950;2024-01-30T14:02:06;6;3;
72908;PMS5003;61051;62.624;17.950;2024-01-30T14:04:34;4;2;
72908;PMS5003;61051;62.624;17.950;2024-01-30T14:07:03;7;6;
72908;PMS5003;61051;62.624;17.950;2024-01-30T14:09:32;6;3;
72908;PMS5003;61051;62.624;17.950;2024-01-30T14:12:00;6;6;
72908;PMS5003;61051;62.624;17.950;2024-01-30T14:14:29;6;4;
72908;PMS5003;61051;62.624;17.950;2024-01-30T14:16:58;6;4;
72908;PMS5003;61051;62.624;17.950;2024-01-30T14:19:27;6;6;
72908;PMS5003;61051;62.624;17.950;2024-01-30T14:21:57;4;4;
72908;PMS5003;61051;62.624;17.950;2024-01-30T14:24:26;4;4;
72908;PMS5003;61051;62.624;17.950;2024-01-30T14:26:56;6;6;
72908;PMS5003;61051;62.624;17.950;2024-01-30T14:29:25;7;6;
72908;PMS5003;61051;62.624;17.950;2024-01-30T14:31:53;7;6;
72908;PMS5003;61051;62.624;17.950;2024-01-30T14:34:22;7;6;
72908;PMS5003;61051;62.624;17.950;2024-01-30T14:36:51;6;6;
72908;PMS5003;61051;62.624;17.950;2024-01-30T14:39:19;7;6;
72908;PMS5003;61051;62.624;17.950;2024-01-30T14:41:49;7;6;
72908;PMS5003;61051;62.624;17.950;2024-01-30T14:44:17;3;2;
72908;PMS5003;61051;62.624;17.950;2024-01-30T14:46:46;3;3;
72908;PMS5003;61051;62.624;17.950;2024-01-30T14:49:15;9;9;
72908;PMS5003;61051;62.624;17.950;2024-01-30T14:51:43;12;8;
72908;PMS5003;61051;62.624;17.950;2024-01-30T14:54:12;7;7;
72908;PMS5003;61051;62.624;17.950;2024-01-30T14:56:41;5;5;
72908;PMS5003;61051;62.624;17.950;2024-01-30T14:59:09;7;5;
72908;PMS5003;61051;62.624;17.950;2024-01-30T15:01:38;5;3;
72908;PMS5003;61051;62.624;17.950;2024-01-30T15:04:07;5;5;
72908;PMS5003;61051;62.624;17.950;2024-01-30T15:06:36;5;5;
72908;PMS5003;61051;62.624;17.950;2024-01-30T15:09:04;6;5;
72908;PMS5003;61051;62.624;17.950;2024-01-30T15:11:33;8;7;
72908;PMS5003;61051;62.624;17.950;2024-01-30T15:14:02;10;8;
72908;PMS5003;61051;62.624;17.950;2024-01-30T15:16:31;7;7;
72908;PMS5003;61051;62.624;17.950;2024-01-30T15:18:59;11;9;
72908;PMS5003;61051;62.624;17.950;2024-01-30T15:21:28;8;3;
72908;PMS5003;61051;62.624;17.950;2024-01-30T15:23:57;6;3;
72908;PMS5003;61051;62.624;17.950;2024-01-30T15:26:25;7;5;
72908;PMS5003;61051;62.624;17.950;2024-01-30T15:28:54;10;6;
72908;PMS5003;61051;62.624;17.950;2024-01-30T15:31:23;7;6;
72908;PMS5003;61051;62.624;17.950;2024-01-30T15:33:51;7;6;
72908;PMS5003;61051;62.624;17.950;2024-01-30T15:36:20;11;8;
72908;PMS5003;61051;62.624;17.950;2024-01-30T15:38:49;6;6;
72908;PMS5003;61051;62.624;17.950;2024-01-30T15:41:18;7;7;
72908;PMS5003;61051;62.624;17.950;2024-01-30T15:43:46;6;6;
72908;PMS5003;61051;62.624;17.950;2024-01-30T15:46:15;6;5;
72908;PMS5003;61051;62.624;17.950;2024-01-30T15:48:44;10;7;
72908;PMS5003;61051;62.624;17.950;2024-01-30T15:51:13;11;10;
72908;PMS5003;61051;62.624;17.950;2024-01-30T15:53:41;20;12;
72908;PMS5003;61051;62.624;17.950;2024-01-30T15:56:10;16;15;
72908;PMS5003;61051;62.624;17.950;2024-01-30T15:58:39;12;12;
72908;PMS5003;61051;62.624;17.950;2024-01-30T16:01:07;16;11;
72908;PMS5003;61051;62.624;17.950;2024-01-30T16:03:36;11;9;
72908;PMS5003;61051;62.624;17.950;2024-01-30T16:06:05;14;11;
72908;PMS5003;61051;62.624;17.950;2024-01-30T16:08:34;10;8;
72908;PMS5003;61051;62.624;17.950;2024-01-30T16:11:03;12;11;
72908;PMS5003;61051;62.624;17.950;2024-01-30T16:13:31;16;14;
72908;PMS5003;61051;62.624;17.950;2024-01-30T16:16:01;10;10;
72908;PMS5003;61051;62.624;17.950;2024-01-30T16:18:30;10;8;
72908;PMS5003;61051;62.624;17.950;2024-01-30T16:20:59;10;8;
72908;PMS5003;61051;62.624;17.950;2024-01-30T16:23:28;11;7;
72908;PMS5003;61051;62.624;17.950;2024-01-30T16:25:58;10;8;
72908;PMS5003;61051;62.624;17.950;2024-01-30T16:28:27;9;9;
72908;PMS5003;61051;62.624;17.950;2024-01-30T16:30:57;10;10;
72908;PMS5003;61051;62.624;17.950;2024-01-30T16:33:26;10;9;
72908;PMS5003;61051;62.624;17.950;2024-01-30T16:35:55;12;11;
72908;PMS5003;61051;62.624;17.950;2024-01-30T16:38:24;10;9;
72908;PMS5003;61051;62.624;17.950;2024-01-30T16:40:53;7;7;
72908;PMS5003;61051;62.624;17.950;2024-01-30T16:43:22;9;7;
72908;PMS5003;61051;62.624;17.950;2024-01-30T16:45:51;9;7;